createdAt,value
2022-08-22T00:00:16.329Z,13.40
2022-08-22T00:03:09.680Z,9.40
2022-08-22T00:03:09.861Z,10.85
2022-08-22T00:03:16.196Z,10.55
2022-08-22T00:05:44.486Z,11.30
2022-08-22T00:08:38.980Z,11.32
2022-08-22T00:11:34.873Z,13.68
2022-08-22T00:14:22.389Z,11.30
2022-08-22T00:17:12.363Z,12.00
2022-08-22T00:19:47.670Z,10.00
2022-08-22T00:22:30.799Z,11.05
2022-08-22T00:25:29.089Z,12.30
2022-08-22T00:28:37.701Z,11.33
2022-08-22T00:31:22.592Z,10.95
2022-08-22T00:33:55.683Z,10.85
2022-08-22T00:36:30.538Z,11.07
2022-08-22T00:39:22.179Z,10.65
2022-08-22T00:42:03.686Z,12.53
2022-08-22T00:45:05.456Z,10.90
2022-08-22T00:47:34.660Z,9.90
2022-08-22T00:50:22.095Z,11.85
2022-08-22T00:53:27.750Z,11.88
2022-08-22T00:56:29.175Z,10.70
2022-08-22T00:59:33.525Z,13.80
2022-08-22T01:02:27.836Z,9.98
2022-08-22T01:05:07.702Z,11.73
2022-08-22T01:07:52.500Z,12.35
2022-08-22T01:10:56.817Z,11.13
2022-08-22T01:13:26.049Z,10.70
2022-08-22T01:16:05.356Z,10.23
2022-08-22T01:18:55.925Z,13.20
2022-08-22T01:21:49.147Z,12.43
2022-08-22T01:24:21.505Z,12.17
2022-08-22T01:27:21.530Z,11.23
2022-08-22T01:30:18.579Z,11.43
2022-08-22T01:33:22.650Z,11.57
2022-08-22T01:35:57.912Z,10.45
2022-08-22T01:38:43.139Z,10.07
2022-08-22T01:41:30.196Z,10.48
2022-08-22T01:44:11.601Z,9.35
2022-08-22T01:47:02.649Z,10.00
2022-08-22T01:49:35.224Z,11.32
2022-08-22T01:52:39.015Z,11.73
2022-08-22T01:55:13.661Z,10.75
2022-08-22T01:57:58.954Z,11.15
2022-08-22T02:00:34.883Z,11.35
2022-08-22T02:03:08.286Z,11.95
2022-08-22T02:05:51.097Z,10.70
2022-08-22T02:08:31.490Z,14.20
2022-08-22T02:11:11.068Z,11.35
2022-08-22T02:14:00.414Z,11.40
2022-08-22T02:16:43.376Z,10.70
2022-08-22T02:19:29.405Z,12.30
2022-08-22T02:22:04.121Z,11.82
2022-08-22T02:24:33.342Z,10.65
2022-08-22T02:27:02.788Z,11.73
2022-08-22T02:29:36.595Z,12.00
2022-08-22T02:32:16.329Z,11.27
2022-08-22T02:34:55.390Z,14.00
2022-08-22T02:38:00.430Z,11.05
2022-08-22T02:41:05.436Z,13.70
2022-08-22T02:43:49.683Z,12.18
2022-08-22T02:46:26.529Z,11.80
2022-08-22T02:49:08.974Z,11.73
2022-08-22T02:52:04.589Z,13.00
2022-08-22T02:54:47.384Z,12.05
2022-08-22T02:57:20.174Z,14.80
2022-08-22T03:00:31.945Z,11.00
2022-08-22T03:03:28.320Z,15.43
2022-08-22T03:06:04.856Z,16.55
2022-08-22T03:08:38.502Z,15.35
2022-08-22T03:11:19.033Z,12.43
2022-08-22T03:14:16.212Z,13.97
2022-08-22T03:17:06.001Z,12.73
2022-08-22T03:20:00.453Z,13.68
2022-08-22T03:22:45.692Z,12.00
2022-08-22T03:25:29.935Z,13.00
2022-08-22T03:28:38.521Z,14.20
2022-08-22T03:31:24.253Z,14.23
2022-08-22T03:34:23.923Z,15.80
2022-08-22T03:37:10.961Z,14.35
2022-08-22T03:39:42.709Z,13.65
2022-08-22T03:42:32.203Z,14.67
2022-08-22T03:45:26.477Z,12.38
2022-08-22T03:48:02.965Z,12.45
2022-08-22T03:50:48.036Z,14.35
2022-08-22T03:53:23.375Z,15.43
2022-08-22T03:56:18.005Z,15.37
2022-08-22T03:58:55.494Z,14.38
2022-08-22T04:01:41.722Z,13.70
2022-08-22T04:04:11.143Z,14.88
2022-08-22T04:06:56.352Z,12.57
2022-08-22T04:09:40.490Z,14.50
2022-08-22T04:12:37.449Z,13.10
2022-08-22T04:15:41.554Z,15.45
2022-08-22T04:18:37.560Z,13.90
2022-08-22T04:21:18.894Z,14.15
2022-08-22T04:23:59.302Z,16.33
2022-08-22T04:27:02.261Z,15.63
2022-08-22T04:29:37.099Z,14.48
2022-08-22T04:32:10.645Z,13.70
2022-08-22T04:34:55.848Z,18.25
2022-08-22T04:37:35.158Z,15.30
2022-08-22T04:40:21.352Z,15.73
2022-08-22T04:42:54.977Z,14.60
2022-08-22T04:45:29.424Z,14.68
2022-08-22T04:48:11.048Z,15.35
2022-08-22T04:51:18.482Z,14.03
2022-08-22T04:53:48.050Z,13.20
2022-08-22T04:56:22.293Z,14.40
2022-08-22T04:58:56.750Z,14.50
2022-08-22T05:01:26.726Z,14.43
2022-08-22T05:04:07.959Z,15.23
2022-08-22T05:06:43.573Z,14.88
2022-08-22T05:09:16.407Z,14.63
2022-08-22T05:11:43.318Z,17.40
2022-08-22T05:14:23.321Z,16.15
2022-08-22T05:16:52.607Z,16.73
2022-08-22T05:19:31.153Z,14.95
2022-08-22T05:21:59.503Z,17.45
2022-08-22T05:24:32.494Z,13.80
2022-08-22T05:27:09.332Z,16.60
2022-08-22T05:29:40.107Z,15.10
2022-08-22T05:32:15.351Z,17.65
2022-08-22T05:34:45.022Z,16.90
2022-08-22T05:37:21.205Z,15.93
2022-08-22T05:39:54.841Z,13.35
2022-08-22T05:42:31.945Z,15.80
2022-08-22T05:45:01.592Z,13.77
2022-08-22T05:47:38.275Z,16.45
2022-08-22T05:50:14.078Z,17.20
2022-08-22T05:53:04.749Z,16.17
2022-08-22T05:55:55.119Z,16.50
2022-08-22T05:58:40.071Z,15.43
2022-08-22T06:01:33.203Z,16.85
2022-08-22T06:04:03.175Z,17.70
2022-08-22T06:06:34.998Z,16.80
2022-08-22T06:09:04.294Z,16.17
2022-08-22T06:11:51.725Z,18.27
2022-08-22T06:14:51.444Z,15.70
2022-08-22T06:17:27.115Z,15.18
2022-08-22T06:19:54.797Z,17.27
2022-08-22T06:22:27.663Z,12.93
2022-08-22T06:25:07.745Z,13.75
2022-08-22T06:27:35.149Z,16.17
2022-08-22T06:30:04.104Z,14.60
2022-08-22T06:32:58.892Z,13.05
2022-08-22T06:35:31.230Z,14.80
2022-08-22T06:38:00.351Z,15.32
2022-08-22T06:40:29.173Z,13.48
2022-08-22T06:42:57.391Z,13.05
2022-08-22T06:45:30.398Z,16.05
2022-08-22T06:48:06.435Z,14.77
2022-08-22T06:50:37.475Z,15.63
2022-08-22T06:53:12.787Z,15.50
2022-08-22T06:55:46.234Z,14.38
2022-08-22T06:58:20.719Z,20.88
2022-08-22T07:01:11.128Z,16.30
2022-08-22T07:03:47.168Z,15.35
2022-08-22T07:06:28.095Z,18.35
2022-08-22T07:08:55.392Z,18.48
2022-08-22T07:11:39.906Z,17.83
2022-08-22T07:14:11.880Z,17.90
2022-08-22T07:16:44.189Z,16.45
2022-08-22T07:19:23.550Z,18.52
2022-08-22T07:21:50.036Z,19.27
2022-08-22T07:24:25.318Z,16.58
2022-08-22T07:27:04.791Z,15.93
2022-08-22T07:30:10.123Z,17.17
2022-08-22T07:33:17.765Z,17.73
2022-08-22T07:35:53.409Z,17.30
2022-08-22T07:38:38.192Z,17.50
2022-08-22T07:41:09.956Z,19.93
2022-08-22T07:43:50.062Z,18.67
2022-08-22T07:46:19.573Z,17.13
2022-08-22T07:49:08.090Z,16.95
2022-08-22T07:51:43.155Z,21.02
2022-08-22T07:54:22.786Z,16.20
2022-08-22T07:56:57.716Z,17.15
2022-08-22T07:59:25.913Z,13.77
2022-08-22T08:01:56.333Z,17.25
2022-08-22T08:04:28.943Z,15.45
2022-08-22T08:06:59.134Z,19.80
2022-08-22T08:09:31.732Z,17.13
2022-08-22T08:12:00.295Z,15.98
2022-08-22T08:14:27.968Z,14.65
2022-08-22T08:17:02.212Z,15.60
2022-08-22T08:19:30.853Z,15.83
2022-08-22T08:21:58.731Z,17.35
2022-08-22T08:24:34.539Z,17.80
2022-08-22T08:27:16.331Z,17.38
2022-08-22T08:29:50.753Z,16.83
2022-08-22T08:32:18.187Z,14.83
2022-08-22T08:34:44.845Z,17.45
2022-08-22T08:37:26.234Z,15.65
2022-08-22T08:39:57.211Z,19.15
2022-08-22T08:42:42.171Z,15.57
2022-08-22T08:45:39.420Z,16.40
2022-08-22T08:48:15.058Z,16.30
2022-08-22T08:51:10.107Z,14.40
2022-08-22T08:54:04.682Z,16.40
2022-08-22T08:56:47.228Z,19.08
2022-08-22T08:59:35.789Z,15.80
2022-08-22T09:02:33.022Z,17.02
2022-08-22T09:05:29.571Z,15.50
2022-08-22T09:08:14.676Z,17.45
2022-08-22T09:11:16.946Z,14.68
2022-08-22T09:14:09.560Z,13.80
2022-08-22T09:16:51.889Z,13.20
2022-08-22T09:19:24.528Z,15.05
2022-08-22T09:22:03.062Z,15.23
2022-08-22T09:24:59.255Z,16.17
2022-08-22T09:27:37.178Z,13.57
2022-08-22T09:30:07.913Z,15.18
2022-08-22T09:32:38.083Z,13.80
2022-08-22T09:35:11.311Z,14.27
2022-08-22T09:37:50.171Z,15.68
2022-08-22T09:40:30.843Z,13.23
2022-08-22T09:43:04.868Z,13.75
2022-08-22T09:45:42.968Z,13.98
2022-08-22T09:48:19.017Z,15.02
2022-08-22T09:51:32.112Z,13.82
2022-08-22T09:54:19.096Z,15.30
2022-08-22T09:56:58.649Z,12.85
2022-08-22T09:59:27.802Z,15.95
2022-08-22T10:02:15.384Z,14.05
2022-08-22T10:04:55.270Z,12.73
2022-08-22T10:07:54.908Z,14.10
2022-08-22T10:10:43.401Z,15.32
2022-08-22T10:13:24.013Z,15.00
2022-08-22T10:16:01.778Z,13.27
2022-08-22T10:19:09.724Z,11.65
2022-08-22T10:22:13.832Z,11.07
2022-08-22T10:25:09.409Z,13.50
2022-08-22T10:27:55.358Z,12.00
2022-08-22T10:30:35.784Z,12.15
2022-08-22T10:33:05.366Z,13.98
2022-08-22T10:35:39.837Z,11.03
2022-08-22T10:38:10.740Z,11.05
2022-08-22T10:40:53.311Z,13.05
2022-08-22T10:43:28.857Z,11.38
2022-08-22T10:46:12.517Z,12.57
2022-08-22T10:49:07.998Z,11.90
2022-08-22T10:51:53.416Z,11.80
2022-08-22T10:54:29.010Z,12.45
2022-08-22T10:56:59.227Z,14.45
2022-08-22T10:59:46.332Z,14.02
2022-08-22T11:02:23.217Z,15.27
2022-08-22T11:05:02.798Z,11.20
2022-08-22T11:07:29.208Z,12.50
2022-08-22T11:10:04.864Z,11.20
2022-08-22T11:12:42.704Z,11.77
2022-08-22T11:15:28.334Z,14.83
2022-08-22T11:18:07.682Z,12.77
2022-08-22T11:21:16.902Z,10.57
2022-08-22T11:24:01.525Z,11.60
2022-08-22T11:26:46.842Z,10.82
2022-08-22T11:29:28.867Z,12.50
2022-08-22T11:32:05.849Z,8.05
2022-08-22T11:35:09.533Z,8.95
2022-08-22T11:37:56.264Z,8.65
2022-08-22T11:40:42.607Z,9.52
2022-08-22T11:43:37.228Z,9.80
2022-08-22T11:46:20.296Z,7.80
2022-08-22T11:48:55.788Z,7.97
2022-08-22T11:51:47.750Z,8.98
2022-08-22T11:54:44.467Z,9.95
2022-08-22T11:57:17.550Z,8.80
2022-08-22T12:00:32.735Z,9.13
2022-08-22T12:03:24.415Z,9.85
2022-08-22T12:06:01.156Z,12.63
2022-08-22T12:08:30.361Z,9.70
2022-08-22T12:11:09.840Z,11.67
2022-08-22T12:14:06.500Z,10.77
2022-08-22T12:17:10.627Z,11.80
2022-08-22T12:20:16.498Z,10.10
2022-08-22T12:23:17.290Z,11.13
2022-08-22T12:25:46.373Z,9.57
2022-08-22T12:28:30.054Z,8.93
2022-08-22T12:31:07.786Z,10.00
2022-08-22T12:33:50.814Z,7.95
2022-08-22T12:36:40.542Z,9.63
2022-08-22T12:39:33.129Z,10.87
2022-08-22T12:42:11.859Z,10.15
2022-08-22T12:45:17.975Z,11.40
2022-08-22T12:48:15.571Z,9.48
2022-08-22T12:50:50.199Z,9.35
2022-08-22T12:53:51.805Z,9.77
2022-08-22T12:56:29.378Z,11.32
2022-08-22T12:59:23.436Z,10.70
2022-08-22T13:01:54.615Z,11.05
2022-08-22T13:04:33.202Z,13.02
2022-08-22T13:07:22.608Z,11.13
2022-08-22T13:09:55.263Z,10.25
2022-08-22T13:12:36.289Z,11.55
2022-08-22T13:15:15.633Z,10.75
2022-08-22T13:17:45.570Z,13.65
2022-08-22T13:20:23.818Z,9.90
2022-08-22T13:22:54.423Z,10.27
2022-08-22T13:25:25.452Z,12.30
2022-08-22T13:27:56.938Z,10.40
2022-08-22T13:30:37.808Z,10.75
2022-08-22T13:33:14.528Z,11.57
2022-08-22T13:35:54.580Z,10.32
2022-08-22T13:38:26.849Z,10.05
2022-08-22T13:40:56.717Z,16.13
2022-08-22T13:43:53.826Z,10.18
2022-08-22T13:46:29.001Z,13.13
2022-08-22T13:49:01.162Z,11.38
2022-08-22T13:52:01.178Z,9.82
2022-08-22T13:54:55.859Z,9.02
2022-08-22T13:57:40.612Z,8.70
2022-08-22T14:00:30.318Z,9.03
2022-08-22T14:03:18.025Z,9.52
2022-08-22T14:05:54.900Z,8.93
2022-08-22T14:08:36.987Z,9.30
2022-08-22T14:11:12.451Z,10.10
2022-08-22T14:13:46.928Z,8.20
2022-08-22T14:16:24.572Z,8.25
2022-08-22T14:18:58.522Z,9.55
2022-08-22T14:21:40.659Z,10.23
2022-08-22T14:24:26.900Z,8.38
2022-08-22T14:27:05.708Z,8.73
2022-08-22T14:29:51.889Z,9.70
2022-08-22T14:32:22.624Z,10.30
2022-08-22T14:35:00.487Z,9.52
2022-08-22T14:37:38.964Z,8.60
2022-08-22T14:40:10.449Z,9.93
2022-08-22T14:42:52.805Z,9.27
2022-08-22T14:45:27.015Z,11.48
2022-08-22T14:48:14.495Z,10.32
2022-08-22T14:50:53.380Z,11.68
2022-08-22T14:53:25.192Z,9.93
2022-08-22T14:56:01.042Z,10.50
2022-08-22T14:58:31.359Z,11.50
2022-08-22T15:01:11.681Z,12.15
2022-08-22T15:03:40.323Z,11.13
2022-08-22T15:06:13.457Z,11.80
2022-08-22T15:08:46.397Z,10.27
2022-08-22T15:11:18.855Z,10.60
2022-08-22T15:14:01.642Z,9.13
2022-08-22T15:16:33.814Z,9.55
2022-08-22T15:19:01.443Z,10.27
2022-08-22T15:21:33.194Z,12.82
2022-08-22T15:24:12.427Z,10.23
2022-08-22T15:26:50.146Z,10.20
2022-08-22T15:29:24.609Z,10.75
2022-08-22T15:32:03.425Z,8.73
2022-08-22T15:34:39.963Z,8.27
2022-08-22T15:37:16.635Z,10.40
2022-08-22T15:40:08.380Z,10.30
2022-08-22T15:42:47.153Z,10.23
2022-08-22T15:45:36.216Z,10.57
2022-08-22T15:48:09.393Z,9.68
2022-08-22T15:50:40.627Z,11.85
2022-08-22T15:53:26.363Z,9.43
2022-08-22T15:56:11.337Z,10.05
2022-08-22T15:58:40.319Z,9.53
2022-08-22T16:01:19.652Z,7.95
2022-08-22T16:04:02.213Z,7.90
2022-08-22T16:06:52.672Z,9.77
2022-08-22T16:09:38.212Z,10.43
2022-08-22T16:12:25.072Z,8.67
2022-08-22T16:14:53.265Z,10.38
2022-08-22T16:17:28.484Z,9.45
2022-08-22T16:20:19.563Z,8.65
2022-08-22T16:22:55.612Z,8.88
2022-08-22T16:25:43.796Z,8.53
2022-08-22T16:28:56.713Z,12.50
2022-08-22T16:31:25.153Z,8.95
2022-08-22T16:33:51.760Z,10.13
2022-08-22T16:36:24.051Z,9.38
2022-08-22T16:38:54.028Z,8.63
2022-08-22T16:41:28.891Z,11.30
2022-08-22T16:44:14.951Z,9.18
2022-08-22T16:46:46.119Z,10.45
2022-08-22T16:49:25.931Z,9.07
2022-08-22T16:52:20.618Z,8.73
2022-08-22T16:55:02.469Z,10.95
2022-08-22T16:58:19.590Z,10.02
2022-08-22T17:00:51.915Z,9.32
2022-08-22T17:03:42.900Z,8.70
2022-08-22T17:06:24.729Z,8.43
2022-08-22T17:09:12.175Z,11.27
2022-08-22T17:11:38.588Z,11.05
2022-08-22T17:14:31.533Z,8.65
2022-08-22T17:17:16.429Z,8.70
2022-08-22T17:19:52.062Z,9.57
2022-08-22T17:22:32.783Z,9.20
2022-08-22T17:25:20.899Z,11.13
2022-08-22T17:28:21.152Z,8.88
2022-08-22T17:31:00.551Z,10.45
2022-08-22T17:33:55.082Z,12.17
2022-08-22T17:36:49.540Z,9.07
2022-08-22T17:40:03.717Z,9.27
2022-08-22T17:42:51.327Z,9.75
2022-08-22T17:45:33.415Z,7.68
2022-08-22T17:48:07.119Z,8.53
2022-08-22T17:50:53.939Z,10.95
2022-08-22T17:53:24.579Z,10.32
2022-08-22T17:56:03.753Z,9.68
2022-08-22T17:58:43.341Z,10.40
2022-08-22T18:01:33.039Z,12.40
2022-08-22T18:04:04.580Z,8.50
2022-08-22T18:06:36.299Z,14.02
2022-08-22T18:09:17.062Z,10.25
2022-08-22T18:11:54.399Z,10.10
2022-08-22T18:14:40.471Z,8.53
2022-08-22T18:17:32.828Z,8.35
2022-08-22T18:20:25.078Z,9.90
2022-08-22T18:23:28.428Z,9.77
2022-08-22T18:26:06.380Z,12.00
2022-08-22T18:28:35.979Z,8.33
2022-08-22T18:31:38.645Z,9.10
2022-08-22T18:34:36.682Z,11.23
2022-08-22T18:37:24.481Z,12.30
2022-08-22T18:39:57.170Z,8.95
2022-08-22T18:42:50.722Z,9.17
2022-08-22T18:45:43.690Z,8.20
2022-08-22T18:49:11.647Z,9.75
2022-08-22T18:51:34.404Z,10.73
2022-08-22T18:54:04.589Z,8.85
2022-08-22T18:56:31.061Z,8.33
2022-08-22T18:59:11.371Z,10.30
2022-08-22T19:01:59.725Z,10.07
2022-08-22T19:04:44.409Z,9.57
2022-08-22T19:07:33.880Z,10.75
2022-08-22T19:10:12.421Z,8.53
2022-08-22T19:13:06.880Z,7.43
2022-08-22T19:16:06.326Z,8.00
2022-08-22T19:18:41.652Z,8.52
2022-08-22T19:21:16.867Z,8.73
2022-08-22T19:23:47.586Z,8.20
2022-08-22T19:26:44.673Z,10.13
2022-08-22T19:29:13.973Z,7.63
2022-08-22T19:32:13.214Z,9.38
2022-08-22T19:34:47.082Z,8.93
2022-08-22T19:37:32.049Z,8.80
2022-08-22T19:40:09.804Z,8.73
2022-08-22T19:42:38.956Z,9.05
2022-08-22T19:45:17.246Z,7.90
2022-08-22T19:47:54.631Z,8.10
2022-08-22T19:50:21.008Z,9.13
2022-08-22T19:52:56.738Z,8.77
2022-08-22T19:55:38.553Z,9.98
2022-08-22T19:58:17.549Z,8.80
2022-08-22T20:01:04.248Z,9.88
2022-08-22T20:03:56.957Z,7.97
2022-08-22T20:06:45.092Z,8.25
2022-08-22T20:10:02.682Z,8.85
2022-08-22T20:12:29.107Z,11.80
2022-08-22T20:14:56.272Z,10.80
2022-08-22T20:17:25.607Z,10.10
2022-08-22T20:20:35.035Z,10.38
2022-08-22T20:23:32.352Z,10.85
2022-08-22T20:25:59.537Z,9.25
2022-08-22T20:28:47.752Z,8.85
2022-08-22T20:31:26.535Z,10.47
2022-08-22T20:34:00.420Z,9.48
2022-08-22T20:36:28.646Z,10.10
2022-08-22T20:39:05.149Z,10.93
2022-08-22T20:41:36.967Z,9.90
2022-08-22T20:44:13.780Z,11.07
2022-08-22T20:46:46.464Z,9.85
2022-08-22T20:49:25.898Z,9.05
2022-08-22T20:51:54.039Z,10.30
2022-08-22T20:54:23.057Z,10.43
2022-08-22T20:57:00.552Z,10.67
2022-08-22T20:59:32.717Z,10.63
2022-08-22T21:02:08.752Z,10.63
2022-08-22T21:05:05.915Z,10.45
2022-08-22T21:07:38.561Z,10.70
2022-08-22T21:10:22.974Z,10.97
2022-08-22T21:13:12.493Z,7.88
2022-08-22T21:15:46.107Z,11.45
2022-08-22T21:18:23.314Z,9.38
2022-08-22T21:20:49.920Z,8.88
2022-08-22T21:23:17.102Z,9.53
2022-08-22T21:26:00.155Z,9.45
2022-08-22T21:28:40.893Z,10.15
2022-08-22T21:31:14.720Z,10.57
2022-08-22T21:33:47.133Z,10.38
2022-08-22T21:36:26.283Z,9.57
2022-08-22T21:39:05.816Z,10.40
2022-08-22T21:41:41.466Z,11.00
2022-08-22T21:44:31.809Z,10.55
2022-08-22T21:47:23.295Z,9.63
2022-08-22T21:50:08.246Z,10.50
2022-08-22T21:52:37.598Z,10.38
2022-08-22T21:55:14.955Z,9.40
2022-08-22T21:57:42.033Z,8.60
2022-08-22T22:00:48.809Z,11.30
2022-08-22T22:03:19.845Z,8.97
2022-08-22T22:05:47.137Z,9.15
2022-08-22T22:08:13.621Z,8.40
2022-08-22T22:10:43.159Z,10.02
2022-08-22T22:13:10.589Z,10.80
2022-08-22T22:15:42.348Z,10.70
2022-08-22T22:18:08.784Z,10.02
2022-08-22T22:20:35.321Z,10.27
2022-08-22T22:23:01.757Z,10.00
2022-08-22T22:25:40.890Z,9.95
2022-08-22T22:28:30.426Z,12.93
2022-08-22T22:30:57.173Z,9.48
2022-08-22T22:33:27.662Z,10.07
2022-08-22T22:35:57.169Z,10.85
2022-08-22T22:38:24.448Z,11.13
2022-08-22T22:40:52.046Z,9.70
2022-08-22T22:43:18.763Z,9.63
2022-08-22T22:45:45.344Z,10.90
2022-08-22T22:48:12.061Z,11.60
2022-08-22T22:50:48.705Z,10.52
2022-08-22T22:53:19.924Z,10.93
2022-08-22T22:55:47.821Z,11.00
2022-08-22T22:58:27.480Z,9.95
2022-08-22T23:00:54.057Z,12.07
2022-08-22T23:03:20.570Z,13.85
2022-08-22T23:05:46.998Z,10.30
2022-08-22T23:08:13.503Z,11.77
2022-08-22T23:10:40.063Z,10.50
2022-08-22T23:13:06.484Z,11.43
2022-08-22T23:15:32.975Z,12.98
2022-08-22T23:17:59.609Z,11.40
2022-08-22T23:20:26.196Z,13.15
2022-08-22T23:22:52.638Z,12.48
2022-08-22T23:25:20.605Z,11.38
2022-08-22T23:27:48.714Z,12.10
2022-08-22T23:30:20.635Z,12.03
2022-08-22T23:32:47.079Z,11.60
2022-08-22T23:35:13.583Z,11.00
2022-08-22T23:37:40.148Z,10.57
2022-08-22T23:40:07.402Z,10.40
2022-08-22T23:42:34.044Z,12.57
2022-08-22T23:45:00.474Z,12.02
2022-08-22T23:47:26.944Z,11.35
2022-08-22T23:49:53.451Z,11.13
2022-08-22T23:52:19.982Z,12.13
2022-08-22T23:54:46.406Z,11.40
2022-08-22T23:57:13.539Z,13.38
2022-08-22T23:59:46.450Z,12.85
